FDX2448 KLAX-KSEA
Flight info
| Callsign | FDX2448 |
|---|---|
| Flight time | 1h 50m |
| Altitude | 34000 |
| Route | LADYJ4 CSTRO SHIMR LKV HAWKZ8 |
| Aircraft | B77L/H-SDE1E2E3FGHIJ2J3J4J5M1RWXY/LB1D1 |
Departure
| Time | 2026-04-24 02:14 |
|---|---|
| Airport | Los Angeles International Airport (KLAX) |
Arrival
| Time | 2026-04-24 04:05 |
|---|---|
| Airport | Seattle–Tacoma International Airport (KSEA) |
| Time | Latitude | Longitude | Altitude | Speed | Heading |
|---|---|---|---|---|---|
| 2026-04-24 01:50 | 33.93411 | -118.38773 | 126 ft | 0 kts | 174° |
| 2026-04-24 02:02 | 33.93416 | -118.38774 | 125 ft | 1 kts | 174° |
| 2026-04-24 02:02 | 33.93422 | -118.38774 | 125 ft | 1 kts | 174° |
| 2026-04-24 02:02 | 33.93427 | -118.38775 | 125 ft | 1 kts | 174° |
| 2026-04-24 02:02 | 33.93432 | -118.38776 | 125 ft | 1 kts | 174° |
| 2026-04-24 02:03 | 33.93443 | -118.38776 | 125 ft | 1 kts | 146° |
| 2026-04-24 02:03 | 33.93448 | -118.38780 | 125 ft | 1 kts | 120° |
| 2026-04-24 02:03 | 33.93452 | -118.38785 | 125 ft | 1 kts | 94° |
| 2026-04-24 02:04 | 33.93452 | -118.38792 | 125 ft | 1 kts | 83° |
| 2026-04-24 02:04 | 33.93451 | -118.38798 | 125 ft | 1 kts | 83° |
| 2026-04-24 02:04 | 33.93451 | -118.38804 | 125 ft | 1 kts | 76° |
| 2026-04-24 02:04 | 33.93450 | -118.38811 | 125 ft | 1 kts | 56° |
| 2026-04-24 02:05 | 33.93449 | -118.38814 | 125 ft | 0 kts | 46° |
| 2026-04-24 02:08 | 33.93455 | -118.38807 | 126 ft | 3 kts | 39° |
| 2026-04-24 02:09 | 33.93489 | -118.38799 | 126 ft | 7 kts | 2° |
| 2026-04-24 02:09 | 33.93535 | -118.38796 | 126 ft | 7 kts | 14° |
| 2026-04-24 02:09 | 33.93561 | -118.38753 | 126 ft | 7 kts | 76° |
| 2026-04-24 02:09 | 33.93570 | -118.38699 | 127 ft | 7 kts | 80° |
| 2026-04-24 02:10 | 33.93576 | -118.38643 | 127 ft | 7 kts | 82° |
| 2026-04-24 02:10 | 33.93582 | -118.38586 | 128 ft | 7 kts | 83° |
| 2026-04-24 02:10 | 33.93588 | -118.38529 | 130 ft | 7 kts | 83° |
| 2026-04-24 02:10 | 33.93593 | -118.38472 | 130 ft | 7 kts | 83° |
| 2026-04-24 02:11 | 33.93599 | -118.38414 | 127 ft | 7 kts | 83° |
| 2026-04-24 02:11 | 33.93604 | -118.38355 | 128 ft | 7 kts | 83° |
| 2026-04-24 02:11 | 33.93613 | -118.38314 | 126 ft | 0 kts | 66° |
| 2026-04-24 02:12 | 33.93630 | -118.38291 | 127 ft | 8 kts | 38° |
| 2026-04-24 02:12 | 33.93685 | -118.38282 | 127 ft | 9 kts | 352° |
| 2026-04-24 02:13 | 33.93728 | -118.38326 | 125 ft | 9 kts | 288° |
| 2026-04-24 02:13 | 33.93729 | -118.38351 | 125 ft | 0 kts | 260° |
| 2026-04-24 02:13 | 33.93716 | -118.38455 | 129 ft | 42 kts | 262° |
| 2026-04-24 02:14 | 33.93646 | -118.39164 | 127 ft | 125 kts | 263° |
| 2026-04-24 02:14 | 33.93504 | -118.40453 | 304 ft | 173 kts | 263° |
| 2026-04-24 02:14 | 33.93364 | -118.41911 | 1067 ft | 180 kts | 262° |
| 2026-04-24 02:14 | 33.93215 | -118.43399 | 1950 ft | 176 kts | 264° |
| 2026-04-24 02:15 | 33.93071 | -118.44851 | 2684 ft | 177 kts | 265° |
| 2026-04-24 02:15 | 33.92946 | -118.46407 | 2976 ft | 200 kts | 267° |
| 2026-04-24 02:15 | 33.92884 | -118.48188 | 3234 ft | 226 kts | 268° |
| 2026-04-24 02:15 | 33.92824 | -118.50222 | 3462 ft | 254 kts | 268° |
| 2026-04-24 02:16 | 33.92676 | -118.52384 | 4152 ft | 264 kts | 264° |
| 2026-04-24 02:16 | 33.92480 | -118.54597 | 4869 ft | 273 kts | 265° |
| 2026-04-24 02:16 | 33.92280 | -118.56884 | 5721 ft | 275 kts | 264° |
| 2026-04-24 02:16 | 33.92083 | -118.59200 | 6565 ft | 279 kts | 265° |
| 2026-04-24 02:17 | 33.92153 | -118.61503 | 7316 ft | 276 kts | 288° |
| 2026-04-24 02:17 | 33.93113 | -118.63481 | 7904 ft | 274 kts | 316° |
| 2026-04-24 02:17 | 33.94639 | -118.64750 | 7987 ft | 271 kts | 331° |
| 2026-04-24 02:17 | 33.96320 | -118.65832 | 8007 ft | 277 kts | 330° |
| 2026-04-24 02:18 | 33.98029 | -118.66943 | 7996 ft | 280 kts | 331° |
| 2026-04-24 02:18 | 33.99854 | -118.67694 | 7989 ft | 279 kts | 356° |
| 2026-04-24 02:18 | 34.01791 | -118.67589 | 8007 ft | 279 kts | 3° |
| 2026-04-24 02:18 | 34.03749 | -118.67445 | 8011 ft | 284 kts | 1° |
| 2026-04-24 02:19 | 34.05713 | -118.67322 | 8007 ft | 287 kts | 1° |
| 2026-04-24 02:19 | 34.07700 | -118.67194 | 7996 ft | 283 kts | 3° |
| 2026-04-24 02:19 | 34.09654 | -118.66862 | 8238 ft | 283 kts | 9° |
| 2026-04-24 02:19 | 34.11595 | -118.66374 | 9048 ft | 286 kts | 10° |
| 2026-04-24 02:20 | 34.13567 | -118.65864 | 9830 ft | 291 kts | 10° |
| 2026-04-24 02:20 | 34.15578 | -118.65360 | 10463 ft | 300 kts | 9° |
| 2026-04-24 02:20 | 34.17713 | -118.64841 | 10697 ft | 326 kts | 9° |
| 2026-04-24 02:20 | 34.19994 | -118.64298 | 10897 ft | 351 kts | 9° |
| 2026-04-24 02:21 | 34.22473 | -118.63711 | 11194 ft | 372 kts | 9° |
| 2026-04-24 02:21 | 34.25050 | -118.63298 | 11607 ft | 377 kts | 356° |
| 2026-04-24 02:21 | 34.27635 | -118.63798 | 12146 ft | 380 kts | 345° |
| 2026-04-24 02:21 | 34.30229 | -118.64504 | 13022 ft | 383 kts | 345° |
| 2026-04-24 02:22 | 34.32847 | -118.65156 | 14003 ft | 385 kts | 346° |
| 2026-04-24 02:22 | 34.35488 | -118.65779 | 14809 ft | 389 kts | 346° |
| 2026-04-24 02:22 | 34.38166 | -118.66393 | 15540 ft | 393 kts | 346° |
| 2026-04-24 02:22 | 34.40874 | -118.67011 | 16296 ft | 399 kts | 346° |
| 2026-04-24 02:23 | 34.43584 | -118.67620 | 17037 ft | 403 kts | 346° |
| 2026-04-24 02:23 | 34.46373 | -118.68186 | 17812 ft | 408 kts | 346° |
| 2026-04-24 02:23 | 34.49195 | -118.68724 | 18518 ft | 412 kts | 347° |
| 2026-04-24 02:23 | 34.52042 | -118.69264 | 19154 ft | 416 kts | 346° |
| 2026-04-24 02:24 | 34.54916 | -118.69813 | 19806 ft | 420 kts | 346° |
| 2026-04-24 02:24 | 34.57820 | -118.70376 | 20442 ft | 424 kts | 346° |
| 2026-04-24 02:24 | 34.60747 | -118.70947 | 21108 ft | 428 kts | 346° |
| 2026-04-24 02:24 | 34.63702 | -118.71524 | 21729 ft | 432 kts | 346° |
| 2026-04-24 02:25 | 34.66688 | -118.72109 | 22327 ft | 436 kts | 346° |
| 2026-04-24 02:25 | 34.69701 | -118.72701 | 22928 ft | 440 kts | 346° |
| 2026-04-24 02:25 | 34.72686 | -118.73515 | 23514 ft | 438 kts | 335° |
| 2026-04-24 02:25 | 34.75361 | -118.75189 | 23925 ft | 433 kts | 325° |
| 2026-04-24 02:26 | 34.77969 | -118.77082 | 24362 ft | 438 kts | 325° |
| 2026-04-24 02:26 | 34.80570 | -118.78948 | 24898 ft | 440 kts | 325° |
| 2026-04-24 02:26 | 34.83232 | -118.80827 | 25494 ft | 442 kts | 326° |
| 2026-04-24 02:26 | 34.85906 | -118.82694 | 26024 ft | 445 kts | 326° |
| 2026-04-24 02:27 | 34.88608 | -118.84566 | 26520 ft | 448 kts | 326° |
| 2026-04-24 02:27 | 34.91337 | -118.86448 | 27007 ft | 451 kts | 326° |
| 2026-04-24 02:27 | 34.94081 | -118.88335 | 27497 ft | 454 kts | 326° |
| 2026-04-24 02:27 | 34.96839 | -118.90231 | 27992 ft | 457 kts | 326° |
| 2026-04-24 02:28 | 34.99623 | -118.92147 | 28477 ft | 460 kts | 326° |
| 2026-04-24 02:28 | 35.02376 | -118.94044 | 28919 ft | 462 kts | 326° |
| 2026-04-24 02:28 | 35.05187 | -118.95985 | 29329 ft | 465 kts | 326° |
| 2026-04-24 02:28 | 35.08018 | -118.97941 | 29722 ft | 468 kts | 326° |
| 2026-04-24 02:29 | 35.10859 | -118.99905 | 30158 ft | 469 kts | 326° |
| 2026-04-24 02:29 | 35.13697 | -119.01868 | 30634 ft | 468 kts | 326° |
| 2026-04-24 02:29 | 35.16525 | -119.03825 | 31130 ft | 466 kts | 325° |
| 2026-04-24 02:29 | 35.19344 | -119.05777 | 31622 ft | 464 kts | 325° |
| 2026-04-24 02:30 | 35.22149 | -119.07722 | 32119 ft | 462 kts | 325° |
| 2026-04-24 02:30 | 35.24941 | -119.09661 | 32557 ft | 461 kts | 325° |
| 2026-04-24 02:30 | 35.27733 | -119.11602 | 32968 ft | 461 kts | 324° |
| 2026-04-24 02:30 | 35.30517 | -119.13538 | 33358 ft | 460 kts | 324° |
| 2026-04-24 02:31 | 35.33298 | -119.15475 | 33767 ft | 459 kts | 324° |
| 2026-04-24 02:31 | 35.36076 | -119.17411 | 34037 ft | 461 kts | 324° |
| 2026-04-24 02:31 | 35.41633 | -119.21287 | 34014 ft | 461 kts | 324° |
| 2026-04-24 02:32 | 35.47421 | -119.24607 | 34012 ft | 467 kts | 338° |
| 2026-04-24 02:32 | 35.53785 | -119.26432 | 34016 ft | 470 kts | 341° |
| 2026-04-24 02:33 | 35.60184 | -119.28167 | 34033 ft | 470 kts | 341° |
| 2026-04-24 02:33 | 35.66566 | -119.29999 | 34029 ft | 470 kts | 340° |
| 2026-04-24 02:34 | 35.72883 | -119.31881 | 34019 ft | 469 kts | 340° |
| 2026-04-24 02:34 | 35.79232 | -119.33794 | 34033 ft | 469 kts | 340° |
| 2026-04-24 02:35 | 35.85569 | -119.35704 | 34015 ft | 468 kts | 340° |
| 2026-04-24 02:35 | 35.91890 | -119.37610 | 34024 ft | 467 kts | 340° |
| 2026-04-24 02:36 | 35.98199 | -119.39514 | 34046 ft | 466 kts | 340° |
| 2026-04-24 02:36 | 36.04465 | -119.41408 | 34035 ft | 466 kts | 340° |
| 2026-04-24 02:37 | 36.10758 | -119.43313 | 34030 ft | 465 kts | 340° |
| 2026-04-24 02:37 | 36.17054 | -119.45223 | 34029 ft | 465 kts | 340° |
| 2026-04-24 02:38 | 36.23299 | -119.47120 | 34035 ft | 464 kts | 340° |
| 2026-04-24 02:38 | 36.29575 | -119.49030 | 34026 ft | 464 kts | 340° |
| 2026-04-24 02:39 | 36.35859 | -119.50945 | 34026 ft | 464 kts | 340° |
| 2026-04-24 02:39 | 36.42119 | -119.52856 | 34035 ft | 463 kts | 340° |
| 2026-04-24 02:40 | 36.47314 | -119.54444 | 34023 ft | 463 kts | 340° |
| 2026-04-24 02:40 | 36.53571 | -119.56360 | 34028 ft | 462 kts | 340° |
| 2026-04-24 02:41 | 36.59777 | -119.58264 | 34044 ft | 461 kts | 340° |
| 2026-04-24 02:41 | 36.66017 | -119.60181 | 34028 ft | 461 kts | 340° |
| 2026-04-24 02:42 | 36.72251 | -119.62100 | 34028 ft | 461 kts | 340° |
| 2026-04-24 02:42 | 36.78506 | -119.64030 | 34341 ft | 464 kts | 340° |
| 2026-04-24 02:43 | 36.81639 | -119.64996 | 34689 ft | 463 kts | 340° |
| 2026-04-24 02:43 | 36.84770 | -119.65962 | 35054 ft | 461 kts | 340° |
| 2026-04-24 02:43 | 36.87839 | -119.66909 | 35399 ft | 460 kts | 340° |
| 2026-04-24 02:43 | 36.90950 | -119.67872 | 35685 ft | 460 kts | 339° |
| 2026-04-24 02:44 | 36.94062 | -119.68836 | 35930 ft | 461 kts | 339° |
| 2026-04-24 02:44 | 36.97188 | -119.69807 | 35990 ft | 464 kts | 339° |
| 2026-04-24 02:44 | 37.03444 | -119.71748 | 36023 ft | 461 kts | 339° |
| 2026-04-24 02:45 | 37.09651 | -119.73675 | 36033 ft | 458 kts | 339° |
| 2026-04-24 02:45 | 37.15789 | -119.75586 | 36039 ft | 456 kts | 339° |
| 2026-04-24 02:46 | 37.21966 | -119.77515 | 36053 ft | 456 kts | 339° |
| 2026-04-24 02:46 | 37.28104 | -119.79433 | 36036 ft | 456 kts | 339° |
| 2026-04-24 02:47 | 37.34280 | -119.81366 | 36045 ft | 457 kts | 339° |
| 2026-04-24 02:47 | 37.40463 | -119.83305 | 36054 ft | 458 kts | 340° |
| 2026-04-24 02:48 | 37.46649 | -119.85248 | 36048 ft | 459 kts | 340° |
| 2026-04-24 02:48 | 37.52853 | -119.87199 | 36069 ft | 459 kts | 340° |
| 2026-04-24 02:49 | 37.59062 | -119.89155 | 36064 ft | 460 kts | 340° |
| 2026-04-24 02:49 | 37.65229 | -119.91103 | 36079 ft | 460 kts | 340° |
| 2026-04-24 02:50 | 37.71461 | -119.93076 | 36073 ft | 461 kts | 340° |
| 2026-04-24 02:50 | 37.77685 | -119.95044 | 36087 ft | 460 kts | 340° |
| 2026-04-24 02:51 | 37.83856 | -119.97000 | 36082 ft | 459 kts | 340° |
| 2026-04-24 02:51 | 37.90050 | -119.98970 | 36077 ft | 458 kts | 340° |
| 2026-04-24 02:52 | 37.96192 | -120.00927 | 36086 ft | 457 kts | 340° |
| 2026-04-24 02:52 | 38.02364 | -120.02895 | 36079 ft | 456 kts | 340° |
| 2026-04-24 02:53 | 38.08512 | -120.04859 | 36091 ft | 455 kts | 340° |
| 2026-04-24 02:53 | 38.14651 | -120.06825 | 36099 ft | 455 kts | 340° |
| 2026-04-24 02:54 | 38.20788 | -120.08791 | 36084 ft | 455 kts | 340° |
| 2026-04-24 02:54 | 38.27045 | -120.10049 | 36096 ft | 461 kts | 349° |
| 2026-04-24 02:55 | 38.33455 | -120.10590 | 36098 ft | 462 kts | 350° |
| 2026-04-24 02:55 | 38.39876 | -120.11124 | 36094 ft | 461 kts | 350° |
| 2026-04-24 02:56 | 38.46293 | -120.11691 | 36082 ft | 461 kts | 350° |
| 2026-04-24 02:56 | 38.52662 | -120.12269 | 36112 ft | 461 kts | 350° |
| 2026-04-24 02:57 | 38.59069 | -120.12857 | 36094 ft | 461 kts | 350° |
| 2026-04-24 02:57 | 38.65494 | -120.13447 | 36083 ft | 461 kts | 350° |
| 2026-04-24 02:58 | 38.71855 | -120.14031 | 36099 ft | 461 kts | 350° |
| 2026-04-24 02:58 | 38.78268 | -120.14621 | 36098 ft | 461 kts | 350° |
| 2026-04-24 02:59 | 38.84675 | -120.15211 | 36097 ft | 461 kts | 350° |
| 2026-04-24 02:59 | 38.91079 | -120.15802 | 36120 ft | 461 kts | 350° |
| 2026-04-24 03:00 | 38.97493 | -120.16395 | 36099 ft | 462 kts | 350° |
| 2026-04-24 03:00 | 39.03880 | -120.16988 | 36090 ft | 462 kts | 350° |
| 2026-04-24 03:01 | 39.10305 | -120.17584 | 36121 ft | 462 kts | 350° |
| 2026-04-24 03:01 | 39.16693 | -120.18178 | 36113 ft | 462 kts | 350° |
| 2026-04-24 03:02 | 39.23113 | -120.18775 | 36118 ft | 463 kts | 350° |
| 2026-04-24 03:02 | 39.29550 | -120.19376 | 36120 ft | 463 kts | 350° |
| 2026-04-24 03:03 | 39.35986 | -120.19978 | 36112 ft | 463 kts | 350° |
| 2026-04-24 03:03 | 39.42419 | -120.20581 | 36033 ft | 463 kts | 350° |
| 2026-04-24 03:04 | 39.48799 | -120.21179 | 36058 ft | 462 kts | 350° |
| 2026-04-24 03:04 | 39.55219 | -120.21783 | 36038 ft | 462 kts | 350° |
| 2026-04-24 03:05 | 39.61648 | -120.22389 | 36031 ft | 462 kts | 350° |
| 2026-04-24 03:05 | 39.68055 | -120.22992 | 36048 ft | 462 kts | 350° |
| 2026-04-24 03:06 | 39.74477 | -120.23600 | 36032 ft | 462 kts | 350° |
| 2026-04-24 03:06 | 39.80886 | -120.24207 | 36026 ft | 462 kts | 350° |
| 2026-04-24 03:07 | 39.87248 | -120.24810 | 36040 ft | 461 kts | 350° |
| 2026-04-24 03:07 | 39.93661 | -120.25420 | 36025 ft | 461 kts | 350° |
| 2026-04-24 03:08 | 40.03258 | -120.26334 | 36022 ft | 460 kts | 350° |
| 2026-04-24 03:09 | 40.09605 | -120.26940 | 36033 ft | 459 kts | 350° |
| 2026-04-24 03:09 | 40.15982 | -120.27551 | 36037 ft | 458 kts | 350° |
| 2026-04-24 03:10 | 40.22313 | -120.28157 | 36035 ft | 458 kts | 350° |
| 2026-04-24 03:10 | 40.28676 | -120.28769 | 36048 ft | 457 kts | 350° |
| 2026-04-24 03:11 | 40.34995 | -120.29377 | 36042 ft | 457 kts | 350° |
| 2026-04-24 03:11 | 40.41339 | -120.29989 | 36053 ft | 457 kts | 350° |
| 2026-04-24 03:12 | 40.47695 | -120.30604 | 36051 ft | 457 kts | 350° |
| 2026-04-24 03:12 | 40.54033 | -120.31217 | 36041 ft | 457 kts | 350° |
| 2026-04-24 03:13 | 40.60377 | -120.31832 | 36041 ft | 456 kts | 350° |
| 2026-04-24 03:13 | 40.66670 | -120.32444 | 36036 ft | 456 kts | 350° |
| 2026-04-24 03:14 | 40.73012 | -120.33061 | 36037 ft | 456 kts | 350° |
| 2026-04-24 03:14 | 40.79346 | -120.33678 | 36047 ft | 456 kts | 350° |
| 2026-04-24 03:15 | 40.85681 | -120.34298 | 36045 ft | 457 kts | 350° |
| 2026-04-24 03:15 | 40.92004 | -120.34917 | 36043 ft | 457 kts | 350° |
| 2026-04-24 03:16 | 40.98349 | -120.35540 | 36049 ft | 457 kts | 351° |
| 2026-04-24 03:16 | 41.04700 | -120.36164 | 36058 ft | 458 kts | 351° |
| 2026-04-24 03:17 | 41.11074 | -120.36790 | 36066 ft | 459 kts | 351° |
| 2026-04-24 03:17 | 41.17422 | -120.37417 | 36078 ft | 460 kts | 352° |
| 2026-04-24 03:18 | 41.23829 | -120.38051 | 36067 ft | 462 kts | 352° |
| 2026-04-24 03:18 | 41.30259 | -120.38688 | 36076 ft | 463 kts | 352° |
| 2026-04-24 03:19 | 41.36690 | -120.39326 | 36082 ft | 464 kts | 352° |
| 2026-04-24 03:19 | 41.43135 | -120.39967 | 36081 ft | 464 kts | 352° |
| 2026-04-24 03:20 | 41.49583 | -120.40609 | 36071 ft | 465 kts | 353° |
| 2026-04-24 03:20 | 41.56043 | -120.41254 | 36079 ft | 465 kts | 353° |
| 2026-04-24 03:21 | 41.62469 | -120.41897 | 36076 ft | 465 kts | 353° |
| 2026-04-24 03:21 | 41.68923 | -120.42545 | 36079 ft | 464 kts | 353° |
| 2026-04-24 03:22 | 41.75364 | -120.43191 | 36083 ft | 463 kts | 353° |
| 2026-04-24 03:22 | 41.81795 | -120.43838 | 36102 ft | 463 kts | 353° |
| 2026-04-24 03:23 | 41.88174 | -120.44482 | 36091 ft | 462 kts | 353° |
| 2026-04-24 03:23 | 41.94593 | -120.45130 | 36092 ft | 462 kts | 354° |
| 2026-04-24 03:24 | 42.01017 | -120.45781 | 36089 ft | 462 kts | 354° |
| 2026-04-24 03:24 | 42.07431 | -120.46431 | 36083 ft | 462 kts | 354° |
| 2026-04-24 03:25 | 42.13837 | -120.47083 | 36084 ft | 462 kts | 354° |
| 2026-04-24 03:25 | 42.20218 | -120.47733 | 36114 ft | 462 kts | 354° |
| 2026-04-24 03:26 | 42.26645 | -120.48389 | 36097 ft | 463 kts | 354° |
| 2026-04-24 03:26 | 42.33085 | -120.49048 | 36096 ft | 463 kts | 354° |
| 2026-04-24 03:27 | 42.39514 | -120.49706 | 36094 ft | 463 kts | 354° |
| 2026-04-24 03:27 | 42.45913 | -120.50363 | 36103 ft | 464 kts | 354° |
| 2026-04-24 03:28 | 42.52159 | -120.52104 | 36098 ft | 456 kts | 334° |
| 2026-04-24 03:28 | 42.62726 | -120.58782 | 36194 ft | 456 kts | 334° |
| 2026-04-24 03:29 | 42.86037 | -120.73008 | 36076 ft | 460 kts | 335° |
| 2026-04-24 03:29 | 43.09244 | -120.87240 | 36081 ft | 458 kts | 335° |
| 2026-04-24 03:30 | 43.32485 | -121.01616 | 36101 ft | 456 kts | 335° |
| 2026-04-24 03:30 | 43.51596 | -121.13525 | 36066 ft | 447 kts | 335° |
| 2026-04-24 03:31 | 43.73956 | -121.27568 | 36178 ft | 437 kts | 335° |
| 2026-04-24 03:31 | 43.92777 | -121.39476 | 36184 ft | 454 kts | 335° |
| 2026-04-24 03:32 | 43.98447 | -121.43080 | 36091 ft | 446 kts | 335° |
| 2026-04-24 03:32 | 44.04057 | -121.46655 | 36101 ft | 443 kts | 335° |
| 2026-04-24 03:33 | 44.09660 | -121.50231 | 36097 ft | 442 kts | 335° |
| 2026-04-24 03:33 | 44.18520 | -121.55902 | 36097 ft | 441 kts | 335° |
| 2026-04-24 03:34 | 44.29610 | -121.63027 | 36121 ft | 441 kts | 334° |
| 2026-04-24 03:34 | 44.40753 | -121.70216 | 36139 ft | 441 kts | 334° |
| 2026-04-24 03:35 | 44.51887 | -121.77431 | 36130 ft | 441 kts | 334° |
| 2026-04-24 03:35 | 44.62958 | -121.84634 | 36169 ft | 441 kts | 334° |
| 2026-04-24 03:36 | 44.74123 | -121.91929 | 36176 ft | 442 kts | 334° |
| 2026-04-24 03:36 | 44.85290 | -121.99258 | 36211 ft | 442 kts | 334° |
| 2026-04-24 03:37 | 44.96434 | -122.06602 | 36223 ft | 441 kts | 334° |
| 2026-04-24 03:37 | 45.07540 | -122.13954 | 36194 ft | 440 kts | 334° |
| 2026-04-24 03:38 | 45.18633 | -122.21328 | 36206 ft | 439 kts | 334° |
| 2026-04-24 03:38 | 45.29667 | -122.28695 | 36181 ft | 438 kts | 334° |
| 2026-04-24 03:39 | 45.40469 | -122.35937 | 36193 ft | 436 kts | 334° |
| 2026-04-24 03:39 | 45.45912 | -122.39598 | 36190 ft | 435 kts | 334° |
| 2026-04-24 03:40 | 45.51387 | -122.43290 | 36194 ft | 434 kts | 334° |
| 2026-04-24 03:40 | 45.56848 | -122.46979 | 36193 ft | 433 kts | 334° |
| 2026-04-24 03:41 | 45.62298 | -122.50669 | 36192 ft | 432 kts | 335° |
| 2026-04-24 03:41 | 45.65026 | -122.52520 | 35871 ft | 437 kts | 335° |
| 2026-04-24 03:41 | 45.67808 | -122.54408 | 35115 ft | 443 kts | 335° |
| 2026-04-24 03:41 | 45.70557 | -122.56277 | 34358 ft | 442 kts | 335° |
| 2026-04-24 03:42 | 45.73334 | -122.58164 | 33503 ft | 441 kts | 336° |
| 2026-04-24 03:42 | 45.76192 | -122.59728 | 32628 ft | 439 kts | 346° |
| 2026-04-24 03:42 | 45.79188 | -122.60524 | 31896 ft | 436 kts | 351° |
| 2026-04-24 03:42 | 45.82175 | -122.61158 | 31303 ft | 431 kts | 351° |
| 2026-04-24 03:43 | 45.85133 | -122.61796 | 30705 ft | 427 kts | 351° |
| 2026-04-24 03:43 | 45.88022 | -122.62452 | 30117 ft | 424 kts | 350° |
| 2026-04-24 03:43 | 45.90914 | -122.63142 | 29467 ft | 420 kts | 350° |
| 2026-04-24 03:43 | 45.93778 | -122.63844 | 28898 ft | 415 kts | 349° |
| 2026-04-24 03:44 | 45.96617 | -122.64549 | 28321 ft | 411 kts | 349° |
| 2026-04-24 03:44 | 45.99419 | -122.65248 | 27763 ft | 406 kts | 349° |
| 2026-04-24 03:44 | 46.02206 | -122.65945 | 27207 ft | 403 kts | 349° |
| 2026-04-24 03:44 | 46.04966 | -122.66633 | 26654 ft | 400 kts | 349° |
| 2026-04-24 03:45 | 46.07673 | -122.67307 | 26147 ft | 397 kts | 349° |
| 2026-04-24 03:45 | 46.10393 | -122.67976 | 25604 ft | 395 kts | 350° |
| 2026-04-24 03:45 | 46.13109 | -122.68545 | 25080 ft | 393 kts | 352° |
| 2026-04-24 03:45 | 46.15810 | -122.69058 | 24562 ft | 391 kts | 352° |
| 2026-04-24 03:46 | 46.18498 | -122.69564 | 24048 ft | 389 kts | 352° |
| 2026-04-24 03:46 | 46.21183 | -122.70077 | 23474 ft | 388 kts | 352° |
| 2026-04-24 03:46 | 46.23849 | -122.70597 | 22920 ft | 385 kts | 351° |
| 2026-04-24 03:46 | 46.26497 | -122.71121 | 22378 ft | 383 kts | 351° |
| 2026-04-24 03:47 | 46.29106 | -122.71639 | 21877 ft | 380 kts | 351° |
| 2026-04-24 03:47 | 46.31718 | -122.72158 | 21375 ft | 378 kts | 352° |
| 2026-04-24 03:47 | 46.34326 | -122.72502 | 20876 ft | 376 kts | 356° |
| 2026-04-24 03:47 | 46.36933 | -122.72605 | 20373 ft | 373 kts | 358° |
| 2026-04-24 03:48 | 46.39528 | -122.72639 | 19900 ft | 371 kts | 358° |
| 2026-04-24 03:48 | 46.42113 | -122.72670 | 19402 ft | 369 kts | 358° |
| 2026-04-24 03:48 | 46.44675 | -122.72719 | 18915 ft | 368 kts | 358° |
| 2026-04-24 03:48 | 46.47225 | -122.72785 | 18422 ft | 366 kts | 358° |
| 2026-04-24 03:49 | 46.49767 | -122.72864 | 17890 ft | 364 kts | 357° |
| 2026-04-24 03:49 | 46.52297 | -122.72950 | 17374 ft | 361 kts | 357° |
| 2026-04-24 03:49 | 46.54798 | -122.73038 | 16870 ft | 358 kts | 357° |
| 2026-04-24 03:49 | 46.57250 | -122.73125 | 16385 ft | 355 kts | 356° |
| 2026-04-24 03:50 | 46.59717 | -122.73215 | 15819 ft | 353 kts | 356° |
| 2026-04-24 03:50 | 46.62175 | -122.73304 | 15259 ft | 353 kts | 356° |
| 2026-04-24 03:50 | 46.64625 | -122.73393 | 14766 ft | 350 kts | 356° |
| 2026-04-24 03:50 | 46.67053 | -122.73481 | 14287 ft | 348 kts | 356° |
| 2026-04-24 03:51 | 46.69461 | -122.73569 | 13784 ft | 345 kts | 357° |
| 2026-04-24 03:51 | 46.71835 | -122.73655 | 13534 ft | 335 kts | 357° |
| 2026-04-24 03:51 | 46.74126 | -122.73737 | 13356 ft | 323 kts | 357° |
| 2026-04-24 03:51 | 46.76330 | -122.73810 | 13220 ft | 308 kts | 359° |
| 2026-04-24 03:52 | 46.78364 | -122.73311 | 13050 ft | 298 kts | 16° |
| 2026-04-24 03:52 | 46.80209 | -122.71940 | 12685 ft | 299 kts | 31° |
| 2026-04-24 03:52 | 46.81841 | -122.70085 | 12352 ft | 296 kts | 35° |
| 2026-04-24 03:52 | 46.83415 | -122.68162 | 12014 ft | 294 kts | 35° |
| 2026-04-24 03:53 | 46.84975 | -122.66212 | 11654 ft | 297 kts | 38° |
| 2026-04-24 03:53 | 46.86479 | -122.64119 | 11301 ft | 299 kts | 39° |
| 2026-04-24 03:53 | 46.87967 | -122.62018 | 11087 ft | 293 kts | 39° |
| 2026-04-24 03:53 | 46.89415 | -122.59994 | 10928 ft | 282 kts | 39° |
| 2026-04-24 03:54 | 46.90812 | -122.58053 | 10769 ft | 272 kts | 39° |
| 2026-04-24 03:54 | 46.92134 | -122.56116 | 10447 ft | 270 kts | 41° |
| 2026-04-24 03:54 | 46.93428 | -122.54146 | 10181 ft | 265 kts | 41° |
| 2026-04-24 03:54 | 46.94675 | -122.52249 | 10075 ft | 253 kts | 41° |
| 2026-04-24 03:55 | 46.95877 | -122.50427 | 9875 ft | 245 kts | 41° |
| 2026-04-24 03:55 | 46.97060 | -122.48640 | 9741 ft | 243 kts | 41° |
| 2026-04-24 03:55 | 46.98243 | -122.46889 | 9571 ft | 238 kts | 36° |
| 2026-04-24 03:55 | 46.99585 | -122.45542 | 9273 ft | 229 kts | 26° |
| 2026-04-24 03:56 | 47.00961 | -122.44417 | 8972 ft | 224 kts | 25° |
| 2026-04-24 03:56 | 47.02327 | -122.43316 | 8703 ft | 226 kts | 26° |
| 2026-04-24 03:56 | 47.03724 | -122.42176 | 8438 ft | 232 kts | 26° |
| 2026-04-24 03:56 | 47.05146 | -122.41002 | 8126 ft | 236 kts | 27° |
| 2026-04-24 03:57 | 47.06563 | -122.39818 | 7797 ft | 233 kts | 27° |
| 2026-04-24 03:57 | 47.07942 | -122.38656 | 7498 ft | 230 kts | 27° |
| 2026-04-24 03:57 | 47.09333 | -122.37481 | 7206 ft | 231 kts | 28° |
| 2026-04-24 03:57 | 47.10729 | -122.36299 | 6900 ft | 232 kts | 28° |
| 2026-04-24 03:58 | 47.12137 | -122.35113 | 6579 ft | 233 kts | 26° |
| 2026-04-24 03:58 | 47.13636 | -122.34289 | 6238 ft | 230 kts | 14° |
| 2026-04-24 03:58 | 47.15203 | -122.33737 | 5931 ft | 232 kts | 13° |
| 2026-04-24 03:58 | 47.16780 | -122.33183 | 5613 ft | 234 kts | 13° |
| 2026-04-24 03:59 | 47.18361 | -122.32610 | 5295 ft | 234 kts | 13° |
| 2026-04-24 03:59 | 47.19947 | -122.32095 | 4970 ft | 232 kts | 6° |
| 2026-04-24 03:59 | 47.21547 | -122.31968 | 4652 ft | 230 kts | 0° |
| 2026-04-24 03:59 | 47.23139 | -122.31970 | 4346 ft | 227 kts | 0° |
| 2026-04-24 04:00 | 47.24702 | -122.31969 | 4038 ft | 222 kts | 0° |
| 2026-04-24 04:00 | 47.26200 | -122.31960 | 3729 ft | 207 kts | 1° |
| 2026-04-24 04:00 | 47.27597 | -122.31949 | 3552 ft | 195 kts | 1° |
| 2026-04-24 04:00 | 47.28900 | -122.31938 | 3340 ft | 183 kts | 1° |
| 2026-04-24 04:01 | 47.30142 | -122.31927 | 3088 ft | 172 kts | 0° |
| 2026-04-24 04:01 | 47.31330 | -122.31917 | 2956 ft | 171 kts | 0° |
| 2026-04-24 04:01 | 47.32520 | -122.31906 | 2720 ft | 171 kts | 0° |
| 2026-04-24 04:01 | 47.33683 | -122.31896 | 2470 ft | 161 kts | 1° |
| 2026-04-24 04:02 | 47.34767 | -122.31886 | 2236 ft | 150 kts | 0° |
| 2026-04-24 04:02 | 47.35788 | -122.31878 | 2058 ft | 146 kts | 1° |
| 2026-04-24 04:02 | 47.36814 | -122.31869 | 1871 ft | 148 kts | 1° |
| 2026-04-24 04:02 | 47.37848 | -122.31859 | 1673 ft | 149 kts | 1° |
| 2026-04-24 04:03 | 47.38884 | -122.31849 | 1452 ft | 148 kts | 1° |
| 2026-04-24 04:03 | 47.39912 | -122.31818 | 1206 ft | 147 kts | 2° |
| 2026-04-24 04:03 | 47.40923 | -122.31820 | 1015 ft | 146 kts | 359° |
| 2026-04-24 04:03 | 47.41948 | -122.31833 | 853 ft | 148 kts | 359° |
| 2026-04-24 04:04 | 47.42989 | -122.31826 | 662 ft | 149 kts | 1° |
| 2026-04-24 04:04 | 47.44027 | -122.31811 | 454 ft | 149 kts | 0° |
| 2026-04-24 04:04 | 47.45022 | -122.31804 | 395 ft | 128 kts | 0° |
| 2026-04-24 04:04 | 47.45759 | -122.31793 | 396 ft | 84 kts | 0° |
| 2026-04-24 04:05 | 47.46114 | -122.31751 | 396 ft | 35 kts | 25° |
| 2026-04-24 04:05 | 47.46310 | -122.31580 | 394 ft | 21 kts | 33° |
| 2026-04-24 04:05 | 47.46374 | -122.31399 | 398 ft | 21 kts | 91° |
| 2026-04-24 04:05 | 47.46365 | -122.31186 | 395 ft | 21 kts | 94° |
| 2026-04-24 04:06 | 47.46365 | -122.30976 | 395 ft | 16 kts | 90° |
| 2026-04-24 04:06 | 47.46368 | -122.30810 | 394 ft | 16 kts | 88° |
| 2026-04-24 04:06 | 47.46374 | -122.30693 | 397 ft | 8 kts | 88° |
| 2026-04-24 04:06 | 47.46358 | -122.30615 | 396 ft | 8 kts | 116° |
| 2026-04-24 04:07 | 47.46321 | -122.30555 | 396 ft | 8 kts | 144° |
| 2026-04-24 04:07 | 47.46271 | -122.30522 | 397 ft | 8 kts | 165° |
| 2026-04-24 04:07 | 47.46217 | -122.30505 | 397 ft | 8 kts | 160° |
| 2026-04-24 04:07 | 47.46186 | -122.30442 | 395 ft | 8 kts | 101° |
| 2026-04-24 04:08 | 47.46178 | -122.30360 | 393 ft | 8 kts | 98° |
| 2026-04-24 04:08 | 47.46166 | -122.30279 | 396 ft | 8 kts | 104° |
| 2026-04-24 04:08 | 47.46156 | -122.30198 | 395 ft | 8 kts | 96° |
| 2026-04-24 04:08 | 47.46155 | -122.30101 | 395 ft | 10 kts | 88° |
| 2026-04-24 04:09 | 47.46147 | -122.30033 | 395 ft | 4 kts | 143° |
| 2026-04-24 04:09 | 47.46122 | -122.30011 | 396 ft | 4 kts | 164° |
| 2026-04-24 04:09 | 47.46102 | -122.30007 | 397 ft | 0 kts | 174° |